Time;durP1;ratioP1;P1;durP2;ratioP2;P2;SDS_P1;SDS_P2;PMS_P1;PMS_P2;Temp;Humidity;BMP_temperature;BMP_pressure;BME280_temperature;BME280_humidity;BME280_pressure;Samples;Min_cycle;Max_cycle;Signal;HPM_P1;HPM_P2
2021/07/02 00:00:41;;;;;;;;;;;;;;;20.92;61.05;99841.09;125291;1102;104165;-76
2021/07/02 00:03:20;;;;;;;;;;;;;;;20.91;61.03;99849.13;125253;1099;104143;-76
2021/07/02 00:05:49;;;;;;;;;;;;;;;20.90;61.13;99842.05;125413;1099;105285;-77
2021/07/02 00:08:18;;;;;;;;;;;;;;;20.88;60.94;99843.84;126371;1099;104217;-77
2021/07/02 00:10:48;;;;;;;;;;;;;;;20.88;61.57;99843.84;125421;1099;104141;-76
2021/07/02 00:13:17;;;;;;;;;;;;;;;20.90;61.05;99839.38;126390;1099;104734;-76
2021/07/02 00:15:46;;;;;;;;;;;;;;;20.98;60.96;99829.45;125897;1099;104505;-78
2021/07/02 00:18:16;;;;;;;;;;;;;;;21.06;61.41;99835.52;125226;1099;104219;-77
2021/07/02 00:20:45;;;;;;;;;;;;;;;21.14;61.58;99838.05;125265;1099;104197;-76
2021/07/02 00:23:15;;;;;;;;;;;;;;;21.20;61.39;99843.28;125276;1099;104248;-76
2021/07/02 00:25:45;;;;;;;;;;;;;;;21.16;61.29;99833.55;125372;1099;104197;-75
2021/07/02 00:28:14;;;;;;;;;;;;;;;21.17;61.33;99836.20;126306;1099;104184;-76
2021/07/02 00:30:43;;;;;;;;;;;;;;;21.21;61.15;99830.80;126336;1099;104130;-77
2021/07/02 00:33:12;;;;;;;;;;;;;;;21.22;61.96;99848.58;126327;1099;104143;-78
2021/07/02 00:35:42;;;;;;;;;;;;;;;21.22;62.30;99857.45;125168;1099;104146;-75
2021/07/02 00:38:11;;;;;;;;;;;;;;;21.22;61.52;99854.78;125221;1099;104189;-77
2021/07/02 00:40:40;;;;;;;;;;;;;;;21.19;62.22;99861.08;125171;1099;104163;-76
2021/07/02 00:43:10;;;;;;;;;;;;;;;21.24;61.91;99860.09;125267;1099;104225;-76
2021/07/02 00:45:39;;;;;;;;;;;;;;;21.22;62.38;99853.92;125194;1099;104181;-76
2021/07/02 00:48:08;;;;;;;;;;;;;;;21.19;61.79;99842.41;126407;1099;104631;-77
2021/07/02 00:50:38;;;;;;;;;;;;;;;21.17;62.33;99843.33;126375;1099;104251;-76
2021/07/02 00:53:09;;;;;;;;;;;;;;;21.20;62.53;99843.28;126320;1099;104165;-77
2021/07/02 00:55:39;;;;;;;;;;;;;;;21.24;62.71;99850.33;125367;1099;104233;-76
2021/07/02 00:58:12;;;;;;;;;;;;;;;21.26;62.06;99855.63;125454;1099;111426;-76
2021/07/02 01:00:42;;;;;;;;;;;;;;;21.26;62.89;99860.97;126378;1099;104169;-76
2021/07/02 01:03:17;;;;;;;;;;;;;;;21.27;62.03;99860.94;125464;1099;104226;-75
2021/07/02 01:05:48;;;;;;;;;;;;;;;21.32;62.41;99866.20;126361;1099;104294;-75
2021/07/02 01:08:17;;;;;;;;;;;;;;;21.34;62.22;99872.37;126341;1098;104859;-76
2021/07/02 01:10:56;;;;;;;;;;;;;;;21.36;62.26;99890.12;126368;1099;104146;-76
2021/07/02 01:13:25;;;;;;;;;;;;;;;21.38;62.62;99911.45;126412;1099;104150;-76
2021/07/02 01:15:55;;;;;;;;;;;;;;;21.40;63.25;99922.97;126386;1099;104201;-75
2021/07/02 01:18:26;;;;;;;;;;;;;;;21.40;62.96;99925.63;126285;1099;104172;-75
2021/07/02 01:21:04;;;;;;;;;;;;;;;21.42;62.61;99918.47;126387;1099;104159;-76
2021/07/02 01:23:34;;;;;;;;;;;;;;;21.44;62.26;99927.35;126390;1099;104127;-77
2021/07/02 01:26:06;;;;;;;;;;;;;;;21.42;62.58;99922.94;126398;1098;104153;-75
2021/07/02 01:28:35;;;;;;;;;;;;;;;21.40;62.69;99919.42;126293;1099;104136;-75
2021/07/02 01:31:07;;;;;;;;;;;;;;;21.40;63.75;99920.30;126333;1099;104128;-75
2021/07/02 01:33:37;;;;;;;;;;;;;;;21.42;62.96;99934.48;126367;1098;104210;-75
2021/07/02 01:36:08;;;;;;;;;;;;;;;21.44;63.72;99971.82;126371;1099;104146;-75
2021/07/02 01:38:43;;;;;;;;;;;;;;;21.44;63.57;100004.75;125445;1099;104158;-75
2021/07/02 01:41:13;;;;;;;;;;;;;;;21.45;63.89;100033.18;125460;1099;104204;-76
2021/07/02 01:43:43;;;;;;;;;;;;;;;21.43;63.51;100020.79;126358;1099;104153;-75
2021/07/02 01:46:15;;;;;;;;;;;;;;;21.44;64.13;100019.86;125471;1099;104207;-75
2021/07/02 01:48:52;;;;;;;;;;;;;;;21.45;64.61;100040.31;126313;1099;104561;-76
2021/07/02 01:51:25;;;;;;;;;;;;;;;21.37;65.40;100048.45;125378;1099;104197;-76
2021/07/02 01:53:58;;;;;;;;;;;;;;;21.28;64.59;100029.91;126327;1099;104156;-76
2021/07/02 01:56:31;;;;;;;;;;;;;;;21.23;64.98;100026.44;126349;1099;104130;-76
2021/07/02 01:59:04;;;;;;;;;;;;;;;21.15;65.49;100032.77;126321;1099;102982;-77
2021/07/02 02:01:51;;;;;;;;;;;;;;;20.98;65.70;100030.34;125370;1099;104168;-75
2021/07/02 02:04:21;;;;;;;;;;;;;;;20.71;64.94;100015.63;126337;1098;104188;-75
2021/07/02 02:06:53;;;;;;;;;;;;;;;20.49;65.77;99985.70;125468;1102;104889;-76
2021/07/02 02:09:25;;;;;;;;;;;;;;;20.25;65.89;99973.55;126283;1099;104146;-76
2021/07/02 02:11:56;;;;;;;;;;;;;;;20.03;66.54;99947.17;126361;1099;104190;-75
2021/07/02 02:14:30;;;;;;;;;;;;;;;19.87;66.64;99954.47;126287;1099;104172;-76
2021/07/02 02:17:01;;;;;;;;;;;;;;;19.86;67.44;99949.16;126313;1099;104166;-76
2021/07/02 02:19:30;;;;;;;;;;;;;;;19.83;66.56;99935.88;126284;1099;105553;-76
2021/07/02 02:22:00;;;;;;;;;;;;;;;19.73;66.44;99935.08;125389;1099;101804;-77
2021/07/02 02:24:36;;;;;;;;;;;;;;;19.64;67.50;99927.19;125438;1099;104277;-76
2021/07/02 02:27:05;;;;;;;;;;;;;;;19.57;68.36;99927.25;126317;1099;104261;-75
2021/07/02 02:29:35;;;;;;;;;;;;;;;19.51;68.34;99914.02;126291;1099;104216;-76
2021/07/02 02:32:05;;;;;;;;;;;;;;;19.48;67.54;99915.83;126359;1099;104637;-75
2021/07/02 02:34:35;;;;;;;;;;;;;;;19.41;68.61;99907.00;126353;1099;104137;-76
2021/07/02 02:37:05;;;;;;;;;;;;;;;19.36;68.58;99898.20;126346;1099;104598;-75
2021/07/02 02:39:35;;;;;;;;;;;;;;;19.31;68.20;99882.28;126331;1098;104224;-76
2021/07/02 02:42:06;;;;;;;;;;;;;;;19.31;68.92;99876.97;126389;1099;104261;-76
2021/07/02 02:44:35;;;;;;;;;;;;;;;19.29;69.34;99860.15;125378;1099;104179;-76
2021/07/02 02:47:04;;;;;;;;;;;;;;;19.26;69.96;99836.24;126309;1099;104195;-76
2021/07/02 02:49:34;;;;;;;;;;;;;;;19.23;69.83;99812.34;126327;1099;104237;-76
2021/07/02 02:52:05;;;;;;;;;;;;;;;19.23;69.12;99815.00;125398;1099;104191;-77
2021/07/02 02:54:34;;;;;;;;;;;;;;;19.30;70.24;99851.25;125396;1099;104220;-77
2021/07/02 02:57:07;;;;;;;;;;;;;;;19.40;70.30;99865.36;126357;1099;104210;-76
2021/07/02 02:59:44;;;;;;;;;;;;;;;19.47;70.15;99867.03;126294;1099;104169;-77
2021/07/02 03:02:16;;;;;;;;;;;;;;;19.52;71.03;99864.33;126376;1099;104152;-76
2021/07/02 03:04:49;;;;;;;;;;;;;;;19.46;70.23;99864.39;126378;1099;104147;-76
2021/07/02 03:07:20;;;;;;;;;;;;;;;19.38;69.79;99868.03;126402;1098;104192;-76
2021/07/02 03:09:51;;;;;;;;;;;;;;;19.35;70.13;99867.16;126352;1099;104165;-77
2021/07/02 03:12:21;;;;;;;;;;;;;;;19.34;70.49;99874.27;126356;1099;104241;-78
2021/07/02 03:14:53;;;;;;;;;;;;;;;19.34;70.48;99866.30;126372;1098;104030;-76
2021/07/02 03:17:23;;;;;;;;;;;;;;;19.38;70.62;99876.02;126350;1099;104210;-78
2021/07/02 03:19:53;;;;;;;;;;;;;;;19.48;71.14;99889.22;126319;1099;104223;-77
2021/07/02 03:22:24;;;;;;;;;;;;;;;19.57;71.39;99883.77;126327;1099;104166;-77
2021/07/02 03:24:56;;;;;;;;;;;;;;;19.62;72.17;99881.97;126329;1099;104153;-76
2021/07/02 03:27:31;;;;;;;;;;;;;;;19.65;71.20;99876.61;126314;1099;104290;-77
2021/07/02 03:30:01;;;;;;;;;;;;;;;19.73;71.91;99877.39;125350;1099;104641;-78
2021/07/02 03:32:32;;;;;;;;;;;;;;;19.80;71.47;99874.69;126356;1099;104227;-78
2021/07/02 03:35:02;;;;;;;;;;;;;;;19.87;71.90;99868.41;126353;1099;104242;-77
2021/07/02 03:37:33;;;;;;;;;;;;;;;19.91;71.71;99849.70;126352;1099;104178;-77
2021/07/02 03:40:08;;;;;;;;;;;;;;;20.01;71.73;99837.14;126300;1099;104140;-76
2021/07/02 03:42:37;;;;;;;;;;;;;;;20.03;71.22;99831.80;126361;1099;104166;-76
2021/07/02 03:45:08;;;;;;;;;;;;;;;20.08;72.38;99828.15;126405;1099;104262;-77
2021/07/02 03:47:39;;;;;;;;;;;;;;;20.17;72.24;99831.61;126376;1099;104165;-76
2021/07/02 03:50:10;;;;;;;;;;;;;;;20.20;72.05;99816.45;125360;1099;104185;-77
2021/07/02 03:52:40;;;;;;;;;;;;;;;20.19;72.16;99798.70;126394;1099;104265;-77
2021/07/02 03:55:10;;;;;;;;;;;;;;;20.23;71.95;99813.74;126352;1099;104213;-77
2021/07/02 03:57:39;;;;;;;;;;;;;;;20.32;72.47;99823.39;126366;1099;104589;-78
2021/07/02 04:00:09;;;;;;;;;;;;;;;20.37;72.38;99829.52;126313;1099;104182;-77
2021/07/02 04:02:47;;;;;;;;;;;;;;;20.41;72.57;99820.59;125340;1099;104171;-78
2021/07/02 04:05:16;;;;;;;;;;;;;;;20.46;72.09;99831.17;126367;1099;104229;-78
2021/07/02 04:07:45;;;;;;;;;;;;;;;20.47;72.72;99831.16;126364;1099;104264;-78
2021/07/02 04:10:14;;;;;;;;;;;;;;;20.48;72.48;99837.36;125334;1099;104188;-79
2021/07/02 04:12:43;;;;;;;;;;;;;;;20.48;72.23;99848.88;126394;1099;104149;-79
2021/07/02 04:15:13;;;;;;;;;;;;;;;20.51;72.24;99860.42;125145;1099;104177;-79
2021/07/02 04:17:42;;;;;;;;;;;;;;;20.48;72.30;99867.53;126359;1099;104130;-78
2021/07/02 04:20:12;;;;;;;;;;;;;;;20.52;73.28;99880.81;126304;1099;104140;-79
2021/07/02 04:22:41;;;;;;;;;;;;;;;20.53;72.79;99877.26;126391;1098;104127;-78
2021/07/02 04:25:11;;;;;;;;;;;;;;;20.52;73.06;99875.48;126337;1099;104120;-78
2021/07/02 04:27:42;;;;;;;;;;;;;;;20.56;72.41;99887.88;126326;1099;104156;-77
2021/07/02 04:30:12;;;;;;;;;;;;;;;20.63;72.70;99892.19;126280;1099;105482;-76
2021/07/02 04:32:42;;;;;;;;;;;;;;;20.67;72.64;99893.08;126336;1099;104248;-77
2021/07/02 04:35:12;;;;;;;;;;;;;;;20.70;72.75;99895.70;125413;1099;104229;-76
2021/07/02 04:37:41;;;;;;;;;;;;;;;20.72;72.63;99894.74;126363;1098;104261;-76
2021/07/02 04:40:12;;;;;;;;;;;;;;;20.70;73.26;99885.91;125241;1099;104994;-76
2021/07/02 04:42:41;;;;;;;;;;;;;;;20.63;72.45;99884.19;125239;1099;101794;-76
2021/07/02 04:45:12;;;;;;;;;;;;;;;20.59;72.71;99882.50;126253;1099;104137;-76
2021/07/02 04:47:41;;;;;;;;;;;;;;;20.52;73.89;99879.05;126249;1099;104217;-75
2021/07/02 04:50:11;;;;;;;;;;;;;;;20.47;73.09;99871.13;126232;1099;104223;-76
2021/07/02 04:52:40;;;;;;;;;;;;;;;20.46;73.96;99873.81;126007;1099;104191;-76
2021/07/02 04:55:10;;;;;;;;;;;;;;;20.48;74.13;99879.99;126260;1099;104140;-76
2021/07/02 04:57:39;;;;;;;;;;;;;;;20.53;74.10;99890.58;126262;1099;104229;-76
2021/07/02 05:00:10;;;;;;;;;;;;;;;20.51;73.15;99889.73;126224;1099;104172;-77
2021/07/02 05:02:39;;;;;;;;;;;;;;;20.48;73.35;99864.87;126249;1099;104152;-77
2021/07/02 05:05:09;;;;;;;;;;;;;;;20.43;74.37;99844.55;126265;1099;104162;-76
2021/07/02 05:07:39;;;;;;;;;;;;;;;20.37;74.08;99844.64;126319;1099;104319;-77
2021/07/02 05:10:09;;;;;;;;;;;;;;;20.32;74.35;99857.13;126217;1098;104216;-76
2021/07/02 05:12:38;;;;;;;;;;;;;;;20.24;74.11;99851.91;125848;1099;104165;-77
2021/07/02 05:15:08;;;;;;;;;;;;;;;20.20;74.88;99844.88;126261;1099;104140;-76
2021/07/02 05:17:37;;;;;;;;;;;;;;;20.22;74.54;99832.41;126257;1099;104143;-76
2021/07/02 05:20:09;;;;;;;;;;;;;;;20.22;74.77;99825.29;125269;1099;104631;-76
2021/07/02 05:22:38;;;;;;;;;;;;;;;20.24;74.08;99827.94;126086;1099;104166;-77
2021/07/02 05:25:08;;;;;;;;;;;;;;;20.24;75.02;99822.60;125329;1099;104133;-77
2021/07/02 05:27:38;;;;;;;;;;;;;;;20.28;74.84;99824.33;125243;1099;104172;-76
2021/07/02 05:30:08;;;;;;;;;;;;;;;20.29;74.79;99810.98;125337;1099;104215;-76
2021/07/02 05:32:38;;;;;;;;;;;;;;;20.32;74.42;99807.41;126212;1098;104156;-76
2021/07/02 05:35:09;;;;;;;;;;;;;;;20.39;75.66;99803.72;126281;1099;104143;-77
2021/07/02 05:37:42;;;;;;;;;;;;;;;20.44;75.50;99796.56;126233;1099;104200;-76
2021/07/02 05:40:13;;;;;;;;;;;;;;;20.48;75.63;99795.59;125335;1099;104395;-76
2021/07/02 05:42:45;;;;;;;;;;;;;;;20.50;75.27;99789.36;126251;1099;104143;-75
2021/07/02 05:45:14;;;;;;;;;;;;;;;20.50;74.67;99781.37;126222;1099;104134;-76
2021/07/02 05:47:47;;;;;;;;;;;;;;;20.56;75.62;99786.59;126045;1099;104169;-76
2021/07/02 05:50:17;;;;;;;;;;;;;;;20.64;74.66;99792.67;126193;1099;104251;-76
2021/07/02 05:52:50;;;;;;;;;;;;;;;20.77;75.23;99788.94;125318;1099;104245;-77
2021/07/02 05:55:19;;;;;;;;;;;;;;;20.93;74.94;99799.33;126213;1099;104169;-76
2021/07/02 05:57:49;;;;;;;;;;;;;;;21.03;75.06;99802.70;126270;1099;104267;-77
2021/07/02 06:00:19;;;;;;;;;;;;;;;21.10;74.81;99799.89;126170;1099;104143;-76
2021/07/02 06:02:48;;;;;;;;;;;;;;;21.15;74.48;99797.14;126165;1099;104268;-76
2021/07/02 06:05:22;;;;;;;;;;;;;;;21.16;75.33;99804.21;125385;1099;104158;-78
2021/07/02 06:07:52;;;;;;;;;;;;;;;21.21;75.03;99809.46;125378;1099;104281;-76
2021/07/02 06:10:25;;;;;;;;;;;;;;;21.31;75.88;99816.39;125364;1099;104248;-77
2021/07/02 06:12:58;;;;;;;;;;;;;;;21.33;74.55;99827.91;126061;1099;104249;-77
2021/07/02 06:15:32;;;;;;;;;;;;;;;21.38;75.72;99842.06;126055;1099;102614;-77
2021/07/02 06:18:08;;;;;;;;;;;;;;;21.45;76.07;99833.01;125180;1102;104149;-77
2021/07/02 06:20:38;;;;;;;;;;;;;;;21.51;75.28;99837.39;125109;1102;104220;-77
2021/07/02 06:23:12;;;;;;;;;;;;;;;21.51;75.00;99835.59;125234;1102;104156;-76
2021/07/02 06:25:46;;;;;;;;;;;;;;;21.53;74.91;99838.23;125191;1100;102882;-78
2021/07/02 06:28:19;;;;;;;;;;;;;;;21.56;74.65;99839.97;125318;1102;104178;-76
2021/07/02 06:30:49;;;;;;;;;;;;;;;21.49;74.48;99845.43;125273;1102;104181;-77
2021/07/02 06:33:19;;;;;;;;;;;;;;;21.48;75.07;99843.63;125193;1102;104136;-76
2021/07/02 06:35:52;;;;;;;;;;;;;;;21.45;74.97;99830.34;125253;1102;104383;-76
2021/07/02 06:38:23;;;;;;;;;;;;;;;21.45;75.34;99843.69;125246;1102;104412;-75
2021/07/02 06:40:53;;;;;;;;;;;;;;;21.48;75.15;99840.09;125264;1102;104209;-76
2021/07/02 06:43:24;;;;;;;;;;;;;;;21.51;75.23;99848.94;125166;1100;104268;-77
2021/07/02 06:45:57;;;;;;;;;;;;;;;21.53;74.82;99847.14;125126;1102;104163;-76
2021/07/02 06:48:31;;;;;;;;;;;;;;;21.51;74.75;99850.73;125240;1102;104373;-75
2021/07/02 06:51:00;;;;;;;;;;;;;;;21.52;75.11;99856.05;126130;1099;104627;-76
2021/07/02 06:53:31;;;;;;;;;;;;;;;21.47;75.38;99870.34;126172;1099;104158;-75
2021/07/02 06:56:03;;;;;;;;;;;;;;;21.43;75.09;99869.53;126214;1099;104246;-76
2021/07/02 06:58:34;;;;;;;;;;;;;;;21.40;74.85;99876.73;125194;1099;104179;-76
2021/07/02 07:01:06;;;;;;;;;;;;;;;21.37;74.77;99869.65;126054;1099;104245;-76
2021/07/02 07:03:39;;;;;;;;;;;;;;;21.33;75.37;99868.84;126072;1099;104146;-76
2021/07/02 07:06:09;;;;;;;;;;;;;;;21.32;75.55;99880.41;126234;1099;104188;-78
2021/07/02 07:08:41;;;;;;;;;;;;;;;21.35;74.57;99885.69;125306;1099;104282;-79
2021/07/02 07:11:15;;;;;;;;;;;;;;;21.44;75.91;99887.31;125288;1099;104227;-79
2021/07/02 07:13:47;;;;;;;;;;;;;;;21.51;75.57;99893.44;125225;1099;104166;-75
2021/07/02 07:16:17;;;;;;;;;;;;;;;21.56;75.49;99894.23;126226;1099;104211;-77
2021/07/02 07:18:49;;;;;;;;;;;;;;;21.60;75.16;99905.72;125348;1099;104563;-76
2021/07/02 07:21:21;;;;;;;;;;;;;;;21.60;75.02;99911.95;125308;1099;104139;-77
2021/07/02 07:23:58;;;;;;;;;;;;;;;21.61;75.18;99918.16;125292;1099;104158;-75
2021/07/02 07:26:31;;;;;;;;;;;;;;;21.57;76.06;99914.69;126291;1099;104157;-76
2021/07/02 07:29:03;;;;;;;;;;;;;;;21.51;75.68;99923.67;125146;1099;104631;-77
2021/07/02 07:31:38;;;;;;;;;;;;;;;21.48;75.28;99923.70;125386;1099;104219;-81
2021/07/02 07:34:11;;;;;;;;;;;;;;;21.45;75.85;99929.09;126072;1099;104168;-78
2021/07/02 07:36:43;;;;;;;;;;;;;;;21.38;75.06;99927.46;126321;1098;104309;-78
2021/07/02 07:39:16;;;;;;;;;;;;;;;21.35;75.80;99914.17;125407;1099;104197;-78
2021/07/02 07:41:49;;;;;;;;;;;;;;;21.37;76.27;99905.20;126077;1099;104172;-79
2021/07/02 07:44:24;;;;;;;;;;;;;;;21.42;75.69;99902.45;126038;1099;104194;-76
2021/07/02 07:46:55;;;;;;;;;;;;;;;21.45;75.04;99897.06;126044;1099;104162;-78
2021/07/02 07:49:27;;;;;;;;;;;;;;;21.56;75.37;99904.03;125955;1099;104162;-78
2021/07/02 07:52:00;;;;;;;;;;;;;;;21.64;75.81;99910.97;126223;1099;104134;-77
2021/07/02 07:54:32;;;;;;;;;;;;;;;21.72;75.61;99913.48;125286;1099;104220;-76
2021/07/02 07:57:04;;;;;;;;;;;;;;;21.81;75.54;99926.66;125285;1099;104329;-77
2021/07/02 07:59:35;;;;;;;;;;;;;;;21.85;75.35;99938.19;125324;1099;104124;-78
2021/07/02 08:02:05;;;;;;;;;;;;;;;21.88;75.60;99949.68;126079;1099;104134;-76
2021/07/02 08:04:41;;;;;;;;;;;;;;;21.89;75.69;99963.91;125285;1099;104242;-77
2021/07/02 08:07:18;;;;;;;;;;;;;;;21.88;75.53;99970.17;125343;1099;104275;-77
2021/07/02 08:09:49;;;;;;;;;;;;;;;21.93;76.23;99970.09;126166;1098;104278;-77
2021/07/02 08:12:20;;;;;;;;;;;;;;;21.92;75.94;99971.86;126084;1098;104172;-77
2021/07/02 08:14:51;;;;;;;;;;;;;;;21.89;75.51;99970.15;126019;1099;104223;-77
2021/07/02 08:17:28;;;;;;;;;;;;;;;21.89;75.95;99967.48;126114;1099;104245;-75
2021/07/02 08:20:04;;;;;;;;;;;;;;;21.89;75.69;99970.15;125303;1099;104238;-76
2021/07/02 08:22:34;;;;;;;;;;;;;;;21.84;75.70;99972.00;126231;1099;104140;-78
2021/07/02 08:25:08;;;;;;;;;;;;;;;21.79;75.62;99973.02;125233;1099;104187;-77
2021/07/02 08:30:24;;;;;;;;;;;;;;;21.65;75.49;99958.13;126265;1099;104275;-76
2021/07/02 08:32:53;;;;;;;;;;;;;;;21.64;75.94;99967.03;125276;1102;104172;-76
2021/07/02 08:35:23;;;;;;;;;;;;;;;21.63;75.73;99962.63;126264;1099;104140;-75
2021/07/02 08:37:53;;;;;;;;;;;;;;;21.66;75.61;99956.33;126239;1099;104156;-77
2021/07/02 08:40:24;;;;;;;;;;;;;;;21.70;75.46;99958.04;125266;1099;104236;-76
2021/07/02 08:42:54;;;;;;;;;;;;;;;21.75;76.28;99956.16;126296;1099;104226;-76
2021/07/02 08:45:27;;;;;;;;;;;;;;;21.74;76.21;99951.75;125220;1099;104194;-75
2021/07/02 08:47:59;;;;;;;;;;;;;;;21.72;75.48;99945.53;125468;1099;104185;-75
2021/07/02 08:50:30;;;;;;;;;;;;;;;21.73;75.52;99953.52;126292;1099;104140;-75
2021/07/02 08:52:59;;;;;;;;;;;;;;;21.73;76.31;99957.98;126321;1099;104179;-75
2021/07/02 08:55:31;;;;;;;;;;;;;;;21.68;75.80;99957.20;125308;1099;104201;-76
2021/07/02 08:58:03;;;;;;;;;;;;;;;21.64;75.67;99952.81;125421;1099;104236;-79
2021/07/02 09:00:37;;;;;;;;;;;;;;;21.53;76.67;99943.23;125238;1102;104245;-77
2021/07/02 09:03:23;;;;;;;;;;;;;;;21.48;76.62;99950.39;125240;1102;104309;-77
2021/07/02 09:06:06;;;;;;;;;;;;;;;21.43;76.34;99944.26;125224;1102;104182;-76
2021/07/02 09:08:36;;;;;;;;;;;;;;;21.42;77.49;99944.28;124932;1102;104174;-75
2021/07/02 09:11:23;;;;;;;;;;;;;;;21.44;76.20;99953.14;125239;1102;104214;-75
2021/07/02 09:13:54;;;;;;;;;;;;;;;21.41;76.87;99948.75;125271;1102;104326;-75
2021/07/02 09:16:26;;;;;;;;;;;;;;;21.37;77.10;99952.38;125219;1100;104283;-76
2021/07/02 09:18:56;;;;;;;;;;;;;;;21.32;77.25;99951.58;125247;1102;104137;-76
2021/07/02 09:21:27;;;;;;;;;;;;;;;21.29;77.25;99947.16;125210;1102;104153;-75
2021/07/02 09:23:58;;;;;;;;;;;;;;;21.29;77.33;99946.30;125218;1102;104150;-76
2021/07/02 09:26:39;;;;;;;;;;;;;;;21.29;77.40;99935.62;125166;1102;104226;-76
2021/07/02 09:29:17;;;;;;;;;;;;;;;21.31;77.08;99933.80;125199;1102;104175;-77
2021/07/02 09:31:56;;;;;;;;;;;;;;;21.31;76.93;99925.80;125379;1099;104725;-76
2021/07/02 09:34:44;;;;;;;;;;;;;;;21.32;76.94;99924.90;125125;1099;104146;-77
2021/07/02 09:37:25;;;;;;;;;;;;;;;21.35;77.17;99920.38;125243;1099;104635;-76
2021/07/02 09:39:57;;;;;;;;;;;;;;;21.41;77.91;99922.06;126264;1099;104133;-78
2021/07/02 09:42:30;;;;;;;;;;;;;;;21.50;77.80;99919.27;125365;1099;104235;-77
2021/07/02 09:45:04;;;;;;;;;;;;;;;21.66;76.87;99921.62;126230;1099;104210;-77
2021/07/02 09:47:35;;;;;;;;;;;;;;;21.72;77.54;99916.16;125345;1099;104213;-77
2021/07/02 09:50:18;;;;;;;;;;;;;;;21.78;77.16;99920.52;126253;1099;104280;-76
2021/07/02 09:52:49;;;;;;;;;;;;;;;21.85;76.60;99907.01;126204;1098;104220;-76
2021/07/02 09:55:20;;;;;;;;;;;;;;;21.92;77.20;99906.89;125220;1098;104232;-77
2021/07/02 09:58:02;;;;;;;;;;;;;;;21.98;76.94;99902.29;125209;1100;104153;-77
2021/07/02 10:00:32;;;;;;;;;;;;;;;22.09;77.23;99904.73;125231;1099;104210;-77
2021/07/02 10:03:06;;;;;;;;;;;;;;;22.16;76.72;99901.03;125213;1099;104239;-76
2021/07/02 10:05:46;;;;;;;;;;;;;;;22.16;76.93;99901.03;125217;1099;104152;-75
2021/07/02 10:08:19;;;;;;;;;;;;;;;22.19;76.66;99894.72;125172;1099;104226;-77
2021/07/02 10:10:53;;;;;;;;;;;;;;;22.23;76.55;99897.30;125240;1099;104146;-76
2021/07/02 10:13:26;;;;;;;;;;;;;;;22.29;76.25;99896.30;125283;1102;105623;-76
2021/07/02 10:15:59;;;;;;;;;;;;;;;22.32;76.58;99890.91;125159;1102;104342;-77
2021/07/02 10:18:31;;;;;;;;;;;;;;;22.34;75.95;99882.86;125135;1102;104278;-76
2021/07/02 10:21:06;;;;;;;;;;;;;;;22.38;75.86;99884.56;125214;1102;104217;-76
2021/07/02 10:23:40;;;;;;;;;;;;;;;22.37;75.72;99878.31;125183;1100;104296;-76
2021/07/02 10:26:09;;;;;;;;;;;;;;;22.40;75.59;99882.73;125181;1102;104249;-76
2021/07/02 10:28:40;;;;;;;;;;;;;;;22.40;76.03;99874.70;125216;1102;105084;-77
2021/07/02 10:31:11;;;;;;;;;;;;;;;22.48;76.21;99879.87;125209;1102;104293;-78
2021/07/02 10:33:44;;;;;;;;;;;;;;;22.55;75.82;99881.50;125256;1102;104197;-77
2021/07/02 10:36:17;;;;;;;;;;;;;;;22.58;75.88;99876.95;125248;1102;104232;-77
2021/07/02 10:38:50;;;;;;;;;;;;;;;22.63;75.43;99884.00;125223;1099;104240;-77
2021/07/02 10:41:21;;;;;;;;;;;;;;;22.61;75.83;99876.02;125201;1102;104294;-77
2021/07/02 10:44:04;;;;;;;;;;;;;;;22.65;75.68;99882.16;125283;1102;104159;-77
2021/07/02 10:46:34;;;;;;;;;;;;;;;22.70;75.41;99886.45;125196;1102;104226;-77
2021/07/02 10:49:04;;;;;;;;;;;;;;;22.73;75.07;99885.52;125257;1102;104179;-76
2021/07/02 10:51:45;;;;;;;;;;;;;;;22.71;74.89;99887.36;125256;1102;104415;-76
2021/07/02 10:54:26;;;;;;;;;;;;;;;22.68;74.86;99884.76;125173;1102;105403;-75
2021/07/02 10:57:08;;;;;;;;;;;;;;;22.64;75.12;99883.06;125303;1102;104217;-77
2021/07/02 10:59:52;;;;;;;;;;;;;;;22.57;74.88;99877.86;125246;1102;104162;-78
2021/07/02 11:02:23;;;;;;;;;;;;;;;22.53;74.70;99876.20;125268;1102;104146;-78
2021/07/02 11:04:56;;;;;;;;;;;;;;;22.49;75.05;99871.82;125265;1102;104270;-75
2021/07/02 11:07:35;;;;;;;;;;;;;;;22.44;74.81;99873.73;125194;1102;104253;-77
2021/07/02 11:10:09;;;;;;;;;;;;;;;22.42;74.51;99870.19;125185;1102;104325;-76
2021/07/02 11:12:57;;;;;;;;;;;;;;;22.43;74.89;99866.62;125525;1099;104387;-76
2021/07/02 11:15:28;;;;;;;;;;;;;;;22.46;74.73;99866.55;125409;1099;104144;-76
2021/07/02 11:18:11;;;;;;;;;;;;;;;22.42;74.27;99859.50;126275;1098;104140;-76
2021/07/02 11:20:45;;;;;;;;;;;;;;;22.38;74.50;99858.70;125279;1099;109485;-77
2021/07/02 11:23:21;;;;;;;;;;;;;;;22.36;74.17;99859.64;125430;1099;104229;-76
2021/07/02 11:25:56;;;;;;;;;;;;;;;22.36;74.12;99855.20;126132;1099;104144;-76
2021/07/02 11:28:42;;;;;;;;;;;;;;;22.33;74.29;99852.59;125117;1102;104169;-77
2021/07/02 11:31:18;;;;;;;;;;;;;;;22.30;74.02;99857.08;125270;1099;104175;-76
2021/07/02 11:33:50;;;;;;;;;;;;;;;22.25;73.72;99857.17;125254;1100;104485;-76
2021/07/02 11:36:22;;;;;;;;;;;;;;;22.25;74.16;99863.42;125284;1102;104328;-77
2021/07/02 11:39:18;;;;;;;;;;;;;;;22.23;73.98;99859.02;125295;1102;104293;-78
2021/07/02 11:41:48;;;;;;;;;;;;;;;22.22;73.88;99860.82;125138;1102;106652;-78
2021/07/02 11:44:19;;;;;;;;;;;;;;;22.24;73.63;99845.62;125276;1102;104309;-78
2021/07/02 11:46:59;;;;;;;;;;;;;;;22.29;74.35;99858.02;125254;1102;104156;-77
2021/07/02 11:49:30;;;;;;;;;;;;;;;22.30;74.23;99860.69;125191;1102;104220;-76
2021/07/02 11:52:03;;;;;;;;;;;;;;;22.31;73.97;99856.20;125272;1102;118979;-77
2021/07/02 11:54:34;;;;;;;;;;;;;;;22.33;73.42;99859.72;124920;1102;104233;-80
2021/07/02 11:57:09;;;;;;;;;;;;;;;22.31;74.03;99849.06;125100;1102;104315;-79
2021/07/02 11:59:39;;;;;;;;;;;;;;;22.38;74.14;99860.51;125162;1102;104430;-77
2021/07/02 12:02:13;;;;;;;;;;;;;;;22.40;73.88;99867.55;125090;1103;104158;-79
2021/07/02 12:04:45;;;;;;;;;;;;;;;22.46;73.79;99866.55;125297;1102;104245;-78
2021/07/02 12:07:18;;;;;;;;;;;;;;;22.51;73.96;99864.64;125356;1099;104573;-77
2021/07/02 12:09:51;;;;;;;;;;;;;;;22.56;73.66;99875.22;126228;1099;104136;-76
2021/07/02 12:12:21;;;;;;;;;;;;;;;22.53;73.54;99868.17;125000;1102;104313;-78
2021/07/02 12:14:53;;;;;;;;;;;;;;;22.48;74.18;99869.19;125374;1099;104598;-77
2021/07/02 12:17:29;;;;;;;;;;;;;;;22.43;73.88;99855.92;126189;1099;104182;-77
2021/07/02 12:20:01;;;;;;;;;;;;;;;22.38;73.59;99868.53;126041;1099;104647;-77
2021/07/02 12:22:32;;;;;;;;;;;;;;;22.34;73.40;99866.83;125257;1099;105305;-78
2021/07/02 12:25:03;;;;;;;;;;;;;;;22.32;73.64;99864.19;126177;1099;104140;-78
2021/07/02 12:27:35;;;;;;;;;;;;;;;22.32;73.71;99866.00;125333;1099;104159;-78
2021/07/02 12:30:07;;;;;;;;;;;;;;;22.31;73.88;99861.55;125319;1099;104130;-78
2021/07/02 12:32:38;;;;;;;;;;;;;;;22.25;73.67;99870.54;125346;1099;104294;-78
2021/07/02 12:35:09;;;;;;;;;;;;;;;22.24;73.65;99867.00;126222;1099;104153;-77
2021/07/02 12:37:40;;;;;;;;;;;;;;;22.23;73.08;99865.23;126280;1099;104185;-77
2021/07/02 12:40:13;;;;;;;;;;;;;;;22.26;73.56;99864.30;126287;1099;104156;-77
2021/07/02 12:42:47;;;;;;;;;;;;;;;22.26;73.29;99867.83;126265;1099;104191;-77
2021/07/02 12:45:17;;;;;;;;;;;;;;;22.26;73.23;99861.63;125110;1102;104156;-78
2021/07/02 12:47:48;;;;;;;;;;;;;;;22.26;73.64;99856.27;125246;1102;104328;-77
2021/07/02 12:50:26;;;;;;;;;;;;;;;22.26;73.33;99859.81;125194;1102;104307;-78
2021/07/02 12:55:42;;;;;;;;;;;;;;;22.38;73.28;99855.16;125245;1102;104198;-77